Decoded Metar for KLQK ( in ) (IATA:) | Meteo·Mobile Aviation Weather
aviador You're here:

KLQK Decoded Metar

in
Report Time2018-10-20 12:15:00
UTC Time2018-10-20 12:30:56
Flight Rules vfr VFR
Wind230° at 07 kt
W.Decomp.*RWY 23: 7.0 kt HW 0 kt LCW
W.Rank230° ranks 1
Current wind is above 230° avg. (5.8)
Visibility9999 m
Phenomena:N/A
Clouds:Broken 060 Hf
Broken 070 Hf
Broken 085 Hf
Ceiling6,000 ft
Temp17°C
Dew Point17°C (100% RH)
AAT16.9°C
QNH1015 hPa
Raw Report
METAR KLQK 201215Z AUTO 23007KT 7SM BKN060 BKN070 BKN085 17/17 A2996
RMK AO2 T01650165=

Extra information for KLQK:More info

Social comments